Natures Way Challenger — WDF7294 — position and weather

sailwx.info

Track history (hours):
 
Tides and Currents Weather Stations Pressure Air Temp Water Temp Dewpoint Dewpoint Depression Visibility Wind Speed Wind Dir Waves Ship Positions

Natures Way Challenger

Owner: Natures Way Marine, LLC, Theodore, AL. More information available from US FCC via Universal Licensing System and Coast Guard Vessel Documentation Center.

Last reported at 2014-Oct-16 08:24 UTC. Time now 2014-Oct-20 09:45 UTC.
Position N 29°57' W 090°24'.

Length 14 m.

Type: Towing. MMSI: 367483050.

Date/timePositionNaut miles runAvg speedWind from/ knotsBaromVisibWave heightAir tempDewpointWater temp
2014-Oct-16 08:24N 29°57' W 090°24'41 0.9
2014-Oct-14 13:33N 29°38' W 091°05'3 2.9
2014-Oct-14 12:33N 29°39' W 091°07'3 2.8
2014-Oct-14 11:33N 29°41' W 091°10'1 1.2
2014-Oct-14 10:33N 29°41' W 091°11'2 2.5
2014-Oct-14 09:33N 29°40' W 091°14'3 2.5
2014-Oct-14 08:33N 29°39' W 091°16'2 2.4
2014-Oct-14 07:33N 29°38' W 091°19'3 2.3
2014-Oct-14 06:25N 29°39' W 091°22'11 2.8
2014-Oct-14 02:20N 29°44' W 091°34'  
2014-Oct-10 11:32N 29°32' W 094°54'3 3.5
2014-Oct-10 10:33N 29°34' W 094°56'4 3.6
2014-Oct-10 09:33N 29°38' W 094°58'4 3.7
2014-Oct-10 08:32N 29°41' W 094°59'4 3.6
2014-Oct-10 07:32N 29°44' W 095°02'4 0.7
2014-Oct-10 01:33N 29°46' W 095°06'1 0.9
2014-Oct-10 00:33N 29°46' W 095°05'5 5.0
2014-Oct-09 23:33N 29°42' W 095°01'5 5.0
2014-Oct-09 22:33N 29°38' W 094°58'5 5.2
2014-Oct-09 21:33N 29°34' W 094°55'1 0.1
2014-Oct-09 00:33N 29°32' W 094°54'6 5.9
2014-Oct-08 23:33N 29°37' W 094°58'6 5.5
2014-Oct-08 22:33N 29°42' W 095°01'5 5.3
2014-Oct-08 21:32N 29°46' W 095°05'1 1.1
2014-Oct-08 20:29N 29°47' W 095°06'0 0.0
2014-Oct-08 19:28N 29°47' W 095°06'0 0.0
2014-Oct-08 18:32N 29°47' W 095°06'0 0.0
2014-Oct-08 17:30N 29°47' W 095°06'0 0.0
2014-Oct-08 16:29N 29°47' W 095°06'0 0.0
2014-Oct-08 15:26N 29°47' W 095°06'0 0.0
2014-Oct-08 14:32N 29°47' W 095°06'0 0.0
2014-Oct-08 13:32N 29°47' W 095°06'0 0.0
2014-Oct-08 12:33N 29°47' W 095°06'19 2.7
2014-Oct-08 05:33N 29°31' W 094°53'  
Track history (hours):
 
Tides and Currents Weather Stations Pressure Air Temp Water Temp Dewpoint Dewpoint Depression Visibility Wind Speed Wind Dir Waves Ship Positions

Natures Way Challenger

Owner: Natures Way Marine, LLC, Theodore, AL. More information available from US FCC via Universal Licensing System and Coast Guard Vessel Documentation Center.

Last reported at 2014-Oct-16 08:24 UTC. Time now 2014-Oct-20 09:45 UTC.
Position N 29°57' W 090°24'.

Length 14 m.

Type: Towing. MMSI: 367483050.

Date/timePositionNaut miles runAvg speedWind from/ knotsBaromVisibWave heightAir tempDewpointWater temp
2014-Oct-16 08:24N 29°57' W 090°24'41 0.9
2014-Oct-14 13:33N 29°38' W 091°05'3 2.9
2014-Oct-14 12:33N 29°39' W 091°07'3 2.8
2014-Oct-14 11:33N 29°41' W 091°10'1 1.2
2014-Oct-14 10:33N 29°41' W 091°11'2 2.5
2014-Oct-14 09:33N 29°40' W 091°14'3 2.5
2014-Oct-14 08:33N 29°39' W 091°16'2 2.4
2014-Oct-14 07:33N 29°38' W 091°19'3 2.3
2014-Oct-14 06:25N 29°39' W 091°22'11 2.8
2014-Oct-14 02:20N 29°44' W 091°34'  
2014-Oct-10 11:32N 29°32' W 094°54'3 3.5
2014-Oct-10 10:33N 29°34' W 094°56'4 3.6
2014-Oct-10 09:33N 29°38' W 094°58'4 3.7
2014-Oct-10 08:32N 29°41' W 094°59'4 3.6
2014-Oct-10 07:32N 29°44' W 095°02'4 0.7
2014-Oct-10 01:33N 29°46' W 095°06'1 0.9
2014-Oct-10 00:33N 29°46' W 095°05'5 5.0
2014-Oct-09 23:33N 29°42' W 095°01'5 5.0
2014-Oct-09 22:33N 29°38' W 094°58'5 5.2
2014-Oct-09 21:33N 29°34' W 094°55'1 0.1
2014-Oct-09 00:33N 29°32' W 094°54'6 5.9
2014-Oct-08 23:33N 29°37' W 094°58'6 5.5
2014-Oct-08 22:33N 29°42' W 095°01'5 5.3
2014-Oct-08 21:32N 29°46' W 095°05'1 1.1
2014-Oct-08 20:29N 29°47' W 095°06'0 0.0
2014-Oct-08 19:28N 29°47' W 095°06'0 0.0
2014-Oct-08 18:32N 29°47' W 095°06'0 0.0
2014-Oct-08 17:30N 29°47' W 095°06'0 0.0
2014-Oct-08 16:29N 29°47' W 095°06'0 0.0
2014-Oct-08 15:26N 29°47' W 095°06'0 0.0
2014-Oct-08 14:32N 29°47' W 095°06'0 0.0
2014-Oct-08 13:32N 29°47' W 095°06'0 0.0
2014-Oct-08 12:33N 29°47' W 095°06'19 2.7
2014-Oct-08 05:33N 29°31' W 094°53'  

Dump ship's entire track history